Terminal Aerodrome Forecast
Issued by NWS Topeka, KS

Home | Current Version | Previous Version | Text Only | Print | Product List | Glossary On
Versions: 1 2 3 4 5 6 7 8 9 10 11 12 13 14 15 16
101
FTUS43 KTOP 232320
TAFTOP
TAF
KTOP 232320Z 2400/2424 17017G26KT P6SM SCT250
     FM241400 17014G21KT P6SM SCT020 BKN035
     FM241900 16012KT P6SM VCTS BKN050CB=

USA.gov is the U.S. government's official web portal to all federal, state and local government web resources and services.